Time;durP1;ratioP1;P1;durP2;ratioP2;P2;SDS_P1;SDS_P2;PMS_P1;PMS_P2;Temp;Humidity;BMP_temperature;BMP_pressure;BME280_temperature;BME280_humidity;BME280_pressure;Samples;Min_cycle;Max_cycle;Signal;HPM_P1;HPM_P2
2021/06/30 00:00:26;;;;;;;0.43;0.43;;;;;;;14.95;84.02;96613.44;29394;232;64009;-58
2021/06/30 00:00:57;;;;;;;0.40;0.40;;;;;;;14.94;83.68;96609.09;29395;197;63009;-58
2021/06/30 00:01:28;;;;;;;0.40;0.40;;;;;;;14.93;83.68;96615.69;29394;232;64009;-58
2021/06/30 00:02:00;;;;;;;0.40;0.40;;;;;;;14.93;84.30;96613.78;29394;292;64013;-59
2021/06/30 00:02:33;;;;;;;0.40;0.40;;;;;;;14.95;84.03;96610.72;29395;225;63004;-59
2021/06/30 00:03:04;;;;;;;0.40;0.40;;;;;;;14.96;84.42;96612.31;29394;226;64013;-57
2021/06/30 00:03:36;;;;;;;0.45;0.45;;;;;;;15.00;83.17;96613.28;29395;208;63004;-58
2021/06/30 00:04:08;;;;;;;0.40;0.40;;;;;;;15.00;83.01;96618.72;29394;230;64013;-58
2021/06/30 00:04:40;;;;;;;0.50;0.50;;;;;;;14.99;83.28;96617.13;29394;206;64008;-59
2021/06/30 00:05:11;;;;;;;0.40;0.40;;;;;;;14.98;83.28;96610.06;29394;246;64013;-58
2021/06/30 00:05:42;;;;;;;0.40;0.40;;;;;;;14.96;83.61;96618.59;29395;255;63005;-58
2021/06/30 00:06:18;;;;;;;0.40;0.40;;;;;;;14.97;83.96;96613.91;29395;207;63009;-59
2021/06/30 00:06:49;;;;;;;0.40;0.40;;;;;;;14.96;84.12;96610.38;29395;231;63005;-59
2021/06/30 00:07:21;;;;;;;0.40;0.40;;;;;;;14.96;84.13;96606.84;29395;218;63009;-59
2021/06/30 00:07:53;;;;;;;0.40;0.40;;;;;;;14.95;84.20;96610.72;29394;265;64009;-59
2021/06/30 00:08:24;;;;;;;0.50;0.50;;;;;;;14.95;84.49;96610.72;29395;203;63009;-59
2021/06/30 00:08:59;;;;;;;0.40;0.40;;;;;;;14.92;84.76;96608.63;29395;234;63005;-58
2021/06/30 00:09:31;;;;;;;0.40;0.40;;;;;;;14.92;84.70;96619.56;29395;226;63009;-59
2021/06/30 00:10:05;;;;;;;0.40;0.40;;;;;;;14.90;85.01;96613.66;29395;228;63004;-58
2021/06/30 00:10:37;;;;;;;0.40;0.40;;;;;;;14.89;84.84;96617.50;29395;228;63009;-59
2021/06/30 00:11:08;;;;;;;0.40;0.40;;;;;;;14.87;84.33;96619.75;29395;221;63004;-59
2021/06/30 00:11:43;;;;;;;0.40;0.40;;;;;;;14.81;83.25;96610.94;29395;249;63009;-59
2021/06/30 00:12:14;;;;;;;1.27;1.27;;;;;;;14.86;84.06;96618.16;29395;249;63004;-57
2021/06/30 00:12:46;;;;;;;0.40;0.40;;;;;;;14.91;83.59;96616.03;29395;218;63009;-59
2021/06/30 00:13:18;;;;;;;0.40;0.40;;;;;;;14.94;83.14;96620.03;29394;203;64009;-58
2021/06/30 00:13:49;;;;;;;0.40;0.40;;;;;;;14.94;83.00;96609.91;29395;281;63009;-58
2021/06/30 00:14:21;;;;;;;0.40;0.40;;;;;;;14.94;83.19;96611.84;29395;218;63008;-59
2021/06/30 00:14:55;;;;;;;0.40;0.40;;;;;;;14.93;83.35;96612.97;29395;222;63009;-59
2021/06/30 00:15:31;;;;;;;0.40;0.40;;;;;;;14.93;84.07;96621.16;29395;217;63005;-59
2021/06/30 00:16:05;;;;;;;0.40;0.40;;;;;;;14.92;84.15;96614.91;29395;275;63009;-59
2021/06/30 00:16:37;;;;;;;0.40;0.40;;;;;;;14.92;83.76;96616.81;29394;238;64009;-60
2021/06/30 00:17:09;;;;;;;0.40;0.40;;;;;;;14.91;84.29;96621.50;29395;204;63009;-58
2021/06/30 00:17:40;;;;;;;0.40;0.40;;;;;;;14.92;84.04;96617.63;29395;278;63004;-59
2021/06/30 00:18:12;;;;;;;0.40;0.40;;;;;;;14.91;84.06;96605.09;29395;206;63009;-60
2021/06/30 00:18:43;;;;;;;0.40;0.40;;;;;;;14.95;83.79;96610.72;29395;213;63004;-58
2021/06/30 00:19:15;;;;;;;0.40;0.40;;;;;;;14.94;83.51;96614.56;29395;236;63009;-58
2021/06/30 00:19:46;;;;;;;0.40;0.40;;;;;;;14.95;83.34;96618.91;29395;205;63004;-59
2021/06/30 00:20:17;;;;;;;0.40;0.40;;;;;;;14.93;83.56;96616.50;29395;337;63008;-60
2021/06/30 00:20:49;;;;;;;0.40;0.40;;;;;;;14.91;84.15;96617.97;29395;217;63005;-58
2021/06/30 00:21:21;;;;;;;0.40;0.40;;;;;;;14.88;84.22;96615.91;29394;199;64014;-59
2021/06/30 00:21:52;;;;;;;0.40;0.40;;;;;;;14.86;84.87;96618.97;29395;354;63005;-60
2021/06/30 00:22:23;;;;;;;0.40;0.40;;;;;;;14.85;84.80;96622.03;29395;223;63009;-59
2021/06/30 00:22:54;;;;;;;0.40;0.40;;;;;;;14.84;85.11;96609.50;29395;198;63005;-58
2021/06/30 00:23:26;;;;;;;0.40;0.40;;;;;;;14.84;85.27;96615.75;29395;206;63009;-60
2021/06/30 00:23:57;;;;;;;0.40;0.40;;;;;;;14.82;85.09;96612.53;29395;198;63005;-59
2021/06/30 00:24:28;;;;;;;0.40;0.40;;;;;;;14.81;84.56;96613.69;29395;285;63009;-60
2021/06/30 00:24:59;;;;;;;0.40;0.40;;;;;;;14.80;84.65;96619.47;29395;208;63004;-58
2021/06/30 00:25:31;;;;;;;0.40;0.40;;;;;;;14.81;84.75;96616.41;29395;223;63009;-58
2021/06/30 00:26:03;;;;;;;0.40;0.40;;;;;;;14.84;84.18;96614.94;29395;271;63004;-59
2021/06/30 00:26:36;;;;;;;0.40;0.40;;;;;;;14.84;84.04;96606.75;29394;225;64013;-58
2021/06/30 00:27:08;;;;;;;0.40;0.40;;;;;;;14.85;84.11;96619.28;29395;282;63004;-60
2021/06/30 00:27:39;;;;;;;0.40;0.40;;;;;;;14.87;84.12;96609.63;29395;214;63008;-59
2021/06/30 00:28:11;;;;;;;0.40;0.40;;;;;;;14.87;84.19;96608.84;29395;231;63005;-58
2021/06/30 00:28:43;;;;;;;0.40;0.40;;;;;;;14.87;84.17;96603.38;29394;284;64001;-58
2021/06/30 00:29:14;;;;;;;0.40;0.40;;;;;;;14.89;84.59;96601.91;29395;216;63008;-58
2021/06/30 00:29:49;;;;;;;0.40;0.40;;;;;;;14.94;83.29;96598.19;29395;269;63009;-59
2021/06/30 00:30:23;;;;;;;0.40;0.40;;;;;;;14.95;83.01;96610.72;29395;315;63005;-58
2021/06/30 00:30:55;;;;;;;0.50;0.50;;;;;;;14.94;83.50;96609.91;29395;240;63020;-58
2021/06/30 00:31:26;;;;;;;0.40;0.40;;;;;;;14.91;83.45;96601.56;29395;244;63004;-58
2021/06/30 00:31:57;;;;;;;0.40;0.40;;;;;;;14.91;83.71;96615.22;29394;214;64013;-60
2021/06/30 00:32:29;;;;;;;0.40;0.40;;;;;;;14.90;83.82;96614.41;29395;307;63004;-59
2021/06/30 00:33:00;;;;;;;0.40;0.40;;;;;;;14.89;83.84;96612.03;29395;236;63009;-59
2021/06/30 00:33:31;;;;;;;0.40;0.40;;;;;;;14.89;83.70;96615.59;29395;260;63004;-57
2021/06/30 00:34:03;;;;;;;0.40;0.40;;;;;;;14.87;83.40;96606.09;29395;220;63008;-58
2021/06/30 00:34:35;;;;;;;0.40;0.40;;;;;;;14.85;83.81;96611.91;29395;377;63004;-58
2021/06/30 00:35:07;;;;;;;0.40;0.40;;;;;;;14.85;84.38;96611.91;29395;249;63008;-59
2021/06/30 00:35:38;;;;;;;0.50;0.50;;;;;;;14.86;84.33;96612.69;29394;302;64009;-59
2021/06/30 00:36:10;;;;;;;0.40;0.40;;;;;;;14.84;84.47;96613.03;29394;197;64014;-59
2021/06/30 00:36:46;;;;;;;0.40;0.40;;;;;;;14.84;84.50;96615.75;29395;227;63005;-57
2021/06/30 00:37:17;;;;;;;0.40;0.40;;;;;;;14.82;84.53;96611.75;29395;380;63009;-58
2021/06/30 00:37:48;;;;;;;0.40;0.40;;;;;;;14.81;84.33;96619.13;29395;215;63005;-58
2021/06/30 00:38:20;;;;;;;0.40;0.40;;;;;;;14.80;84.46;96620.25;29395;226;63009;-59
2021/06/30 00:38:51;;;;;;;0.40;0.40;;;;;;;14.78;84.68;96606.12;29395;197;63004;-59
2021/06/30 00:39:22;;;;;;;0.40;0.40;;;;;;;14.78;84.64;96616.25;29395;240;63004;-59
2021/06/30 00:39:56;;;;;;;0.40;0.40;;;;;;;14.75;84.57;96613.03;29395;261;63015;-59
2021/06/30 00:40:28;;;;;;;0.40;0.40;;;;;;;14.75;84.67;96620.44;29395;237;63009;-58
2021/06/30 00:41:00;;;;;;;0.40;0.40;;;;;;;14.75;84.64;96613.03;29394;324;64009;-59
2021/06/30 00:41:32;;;;;;;0.40;0.40;;;;;;;14.75;84.95;96617.72;29395;210;63008;-58
2021/06/30 00:42:03;;;;;;;0.50;0.50;;;;;;;14.74;84.87;96614.16;29394;244;64008;-59
2021/06/30 00:42:39;;;;;;;0.40;0.40;;;;;;;14.73;84.98;96620.75;29395;192;63009;-59
2021/06/30 00:43:10;;;;;;;0.50;0.50;;;;;;;14.74;85.32;96616.91;29395;218;63005;-59
2021/06/30 00:43:42;;;;;;;0.50;0.50;;;;;;;14.73;85.54;96618.03;29395;334;63009;-59
2021/06/30 00:44:15;;;;;;;0.40;0.40;;;;;;;14.74;85.46;96614.16;29395;198;63005;-59
2021/06/30 00:44:47;;;;;;;0.50;0.50;;;;;;;14.77;85.35;96622.84;29394;239;64013;-59
2021/06/30 00:45:20;;;;;;;0.50;0.50;;;;;;;14.77;85.53;96609.19;29394;281;64009;-58
2021/06/30 00:45:51;;;;;;;0.45;0.45;;;;;;;14.77;85.24;96614.66;29395;197;63009;-59
2021/06/30 00:46:25;;;;;;;0.40;0.40;;;;;;;14.79;85.49;96615.13;29395;224;63004;-59
2021/06/30 00:46:57;;;;;;;0.45;0.45;;;;;;;14.79;84.89;96615.13;29395;343;63009;-59
2021/06/30 00:47:30;;;;;;;0.50;0.50;;;;;;;14.78;84.75;96616.25;29394;213;64009;-58
2021/06/30 00:48:03;;;;;;;0.40;0.40;;;;;;;14.75;84.67;96623.97;29395;229;63009;-58
2021/06/30 00:48:35;;;;;;;0.40;0.40;;;;;;;14.75;84.76;96618.50;29395;204;63011;-58
2021/06/30 00:49:08;;;;;;;0.40;0.40;;;;;;;14.78;84.53;96624.44;29395;281;63008;-59
2021/06/30 00:49:39;;;;;;;0.40;0.40;;;;;;;14.77;84.46;96617.37;29395;212;63004;-59
2021/06/30 00:50:15;;;;;;;0.40;0.40;;;;;;;14.76;84.34;96622.03;29395;199;63009;-59
2021/06/30 00:50:48;;;;;;;0.40;0.40;;;;;;;14.75;83.81;96621.25;29395;346;63005;-58
2021/06/30 00:51:19;;;;;;;0.40;0.40;;;;;;;14.72;83.90;96624.63;29395;277;63009;-59
2021/06/30 00:51:50;;;;;;;0.40;0.40;;;;;;;14.71;83.68;96617.56;29394;266;64009;-59
2021/06/30 00:52:22;;;;;;;0.40;0.40;;;;;;;14.71;83.81;96614.81;29395;203;63009;-59
2021/06/30 00:52:54;;;;;;;0.40;0.40;;;;;;;14.69;83.54;96624.47;29395;342;63005;-58
2021/06/30 00:53:25;;;;;;;0.40;0.40;;;;;;;14.69;83.81;96613.53;29395;286;63009;-59
2021/06/30 00:54:02;;;;;;;0.40;0.40;;;;;;;14.69;83.64;96611.63;29395;198;63004;-59
2021/06/30 00:54:34;;;;;;;0.40;0.40;;;;;;;14.71;82.74;96617.56;29395;227;63009;-59
2021/06/30 00:55:06;;;;;;;0.40;0.40;;;;;;;14.71;82.93;96617.56;29394;238;64004;-59
2021/06/30 00:55:38;;;;;;;0.40;0.40;;;;;;;14.71;83.36;96612.09;29395;261;63009;-59
2021/06/30 00:56:11;;;;;;;0.50;0.50;;;;;;;14.73;83.00;96620.75;29395;242;63004;-60
2021/06/30 00:56:44;;;;;;;0.40;0.40;;;;;;;14.73;83.07;96618.03;29394;202;64013;-59
2021/06/30 00:57:19;;;;;;;0.40;0.40;;;;;;;14.74;82.75;96616.91;29395;283;63005;-58
2021/06/30 00:57:51;;;;;;;0.40;0.40;;;;;;;14.72;83.22;96619.16;29395;285;63009;-58
2021/06/30 00:58:22;;;;;;;0.40;0.40;;;;;;;14.72;83.15;96616.44;29395;285;63005;-60
2021/06/30 00:58:56;;;;;;;0.40;0.40;;;;;;;14.72;83.37;96623.81;29394;202;64031;-59
2021/06/30 00:59:28;;;;;;;0.47;0.47;;;;;;;14.72;82.68;96621.88;29395;302;63005;-60
2021/06/30 00:59:59;;;;;;;0.40;0.40;;;;;;;14.72;82.25;96619.16;29395;366;63024;-58
2021/06/30 01:00:31;;;;;;;0.40;0.40;;;;;;;14.71;82.38;96614.81;29395;305;63005;-59
2021/06/30 01:01:03;;;;;;;0.40;0.40;;;;;;;14.70;82.65;96615.16;29395;278;63009;-59
2021/06/30 01:01:34;;;;;;;0.40;0.40;;;;;;;14.70;83.03;96624.13;29395;207;63000;-59
2021/06/30 01:02:05;;;;;;;0.40;0.40;;;;;;;14.70;82.97;96615.16;29395;208;63009;-59
2021/06/30 01:02:36;;;;;;;0.40;0.40;;;;;;;14.68;83.03;96620.94;29395;197;63004;-58
2021/06/30 01:03:11;;;;;;;0.40;0.40;;;;;;;14.68;83.21;96618.19;29395;215;63009;-59
2021/06/30 01:03:42;;;;;;;0.40;0.40;;;;;;;14.67;83.63;96627.53;29395;368;63004;-59
2021/06/30 01:04:14;;;;;;;0.40;0.40;;;;;;;14.66;83.65;96619.66;29394;266;64013;-59
2021/06/30 01:04:45;;;;;;;0.40;0.40;;;;;;;14.67;83.64;96615.78;29394;257;64008;-58
2021/06/30 01:05:17;;;;;;;0.40;0.40;;;;;;;14.67;83.30;96622.06;29394;263;64009;-59
2021/06/30 01:05:48;;;;;;;0.40;0.40;;;;;;;14.69;82.62;96619.81;29395;228;63005;-58
2021/06/30 01:06:20;;;;;;;0.40;0.40;;;;;;;14.74;82.11;96625.09;29395;245;63009;-59
2021/06/30 01:06:51;;;;;;;0.40;0.40;;;;;;;14.77;81.64;96614.66;29395;196;63005;-59
2021/06/30 01:07:23;;;;;;;0.40;0.40;;;;;;;14.79;81.64;96624.13;29394;296;64013;-58
2021/06/30 01:07:54;;;;;;;0.40;0.40;;;;;;;14.79;81.67;96623.31;29395;209;63005;-59
2021/06/30 01:08:28;;;;;;;0.40;0.40;;;;;;;14.75;82.21;96618.50;29395;216;63009;-60
2021/06/30 01:09:03;;;;;;;0.40;0.40;;;;;;;14.73;82.56;96625.41;29395;217;63004;-60
2021/06/30 01:09:35;;;;;;;0.40;0.40;;;;;;;14.72;82.29;96626.53;29395;206;63025;-58
2021/06/30 01:10:07;;;;;;;0.40;0.40;;;;;;;14.70;82.96;96621.41;29395;222;63004;-59
2021/06/30 01:10:38;;;;;;;0.40;0.40;;;;;;;14.67;83.04;96627.53;29395;261;63009;-60
2021/06/30 01:11:11;;;;;;;0.40;0.40;;;;;;;14.65;83.35;96629.78;29395;219;63004;-59
2021/06/30 01:11:43;;;;;;;0.40;0.40;;;;;;;14.63;83.79;96626.56;29395;227;63008;-60
2021/06/30 01:12:14;;;;;;;0.40;0.40;;;;;;;14.64;83.77;96633.63;29395;256;63004;-59
2021/06/30 01:12:47;;;;;;;0.40;0.40;;;;;;;14.64;83.95;96632.81;29394;245;64014;-59
2021/06/30 01:13:18;;;;;;;0.40;0.40;;;;;;;14.62;84.05;96633.16;29395;197;63005;-59
2021/06/30 01:13:49;;;;;;;0.43;0.43;;;;;;;14.62;84.12;96635.88;29395;288;63009;-60
2021/06/30 01:14:31;;;;;;;0.40;0.40;;;;;;;14.60;84.37;96632.66;29395;301;63005;-60
2021/06/30 01:15:05;;;;;;;0.40;0.40;;;;;;;14.62;84.11;96629.63;29395;256;63009;-58
2021/06/30 01:15:56;;;;;;;0.40;0.40;;;;;;;14.59;83.92;96636.53;29395;275;63005;-58
2021/06/30 01:16:27;;;;;;;0.40;0.40;;;;;;;14.61;83.15;96642.47;29395;202;63009;-59
2021/06/30 01:17:01;;;;;;;0.40;0.40;;;;;;;14.60;83.02;96632.66;29395;224;63004;-58
2021/06/30 01:17:33;;;;;;;0.40;0.40;;;;;;;14.61;83.17;96633.47;29394;216;64013;-58
2021/06/30 01:18:04;;;;;;;0.40;0.40;;;;;;;14.63;83.05;96639.41;29395;202;63004;-59
2021/06/30 01:18:36;;;;;;;0.40;0.40;;;;;;;14.63;82.56;96634.75;29395;196;63009;-59
2021/06/30 01:19:08;;;;;;;0.40;0.40;;;;;;;14.63;83.11;96629.28;29395;275;63004;-59
2021/06/30 01:19:39;;;;;;;0.40;0.40;;;;;;;14.62;82.68;96640.53;29395;199;63008;-59
2021/06/30 01:20:11;;;;;;;0.50;0.50;;;;;;;14.61;82.66;96639.72;29395;228;63005;-60
2021/06/30 01:20:42;;;;;;;0.50;0.50;;;;;;;14.60;83.00;96634.59;29395;277;63019;-60
2021/06/30 01:21:15;;;;;;;0.40;0.40;;;;;;;14.60;82.99;96643.59;29394;224;63993;-59
2021/06/30 01:21:48;;;;;;;0.40;0.40;;;;;;;14.62;82.50;96641.34;29395;227;63009;-56
2021/06/30 01:22:19;;;;;;;0.47;0.47;;;;;;;14.64;82.38;96633.63;29395;300;63005;-59
2021/06/30 01:23:07;;;;;;;0.45;0.45;;;;;;;14.65;82.19;96640.69;29394;239;64013;-59
2021/06/30 01:23:40;;;;;;;0.40;0.40;;;;;;;14.64;82.22;96639.09;29395;255;63005;-59
2021/06/30 01:24:17;;;;;;;0.43;0.43;;;;;;;14.65;81.89;96646.16;29395;206;63009;-59
2021/06/30 01:24:50;;;;;;;0.40;0.40;;;;;;;14.64;81.92;96646.47;29395;254;63004;-60
2021/06/30 01:25:21;;;;;;;0.50;0.50;;;;;;;14.63;82.32;96642.94;29395;205;63009;-60
2021/06/30 01:25:54;;;;;;;0.40;0.40;;;;;;;14.62;82.47;96643.28;29395;242;63004;-59
2021/06/30 01:26:25;;;;;;;0.40;0.40;;;;;;;14.59;82.24;96642.00;29395;222;63009;-59
2021/06/30 01:26:58;;;;;;;0.40;0.40;;;;;;;14.58;82.59;96645.84;29395;284;63009;-59
2021/06/30 01:27:33;;;;;;;0.40;0.40;;;;;;;14.58;82.47;96650.50;29395;311;63009;-57
2021/06/30 01:28:05;;;;;;;0.40;0.40;;;;;;;14.64;82.19;96644.56;29394;318;64009;-59
2021/06/30 01:28:38;;;;;;;0.50;0.50;;;;;;;14.64;81.73;96643.75;29395;293;63014;-59
2021/06/30 01:29:09;;;;;;;0.40;0.40;;;;;;;14.66;81.60;96644.22;29395;230;63005;-59
2021/06/30 01:29:40;;;;;;;0.40;0.40;;;;;;;14.65;81.58;96643.44;29395;199;63009;-61
2021/06/30 01:30:14;;;;;;;0.40;0.40;;;;;;;14.63;81.72;96653.06;29395;317;63005;-59
2021/06/30 01:30:47;;;;;;;0.43;0.43;;;;;;;14.61;82.26;96650.66;29395;222;63009;-57
2021/06/30 01:31:19;;;;;;;0.40;0.40;;;;;;;14.70;81.88;96647.91;29395;342;63005;-58
2021/06/30 01:31:51;;;;;;;0.50;0.50;;;;;;;14.72;81.53;96648.41;29395;212;63004;-59
2021/06/30 01:32:25;;;;;;;0.50;0.50;;;;;;;14.73;81.65;96659.00;29395;202;63015;-58
2021/06/30 01:32:56;;;;;;;0.50;0.50;;;;;;;14.69;81.61;96647.13;29395;209;63009;-59
2021/06/30 01:33:28;;;;;;;0.50;0.50;;;;;;;14.67;81.88;96641.19;29394;223;64009;-60
2021/06/30 01:33:59;;;;;;;0.40;0.40;;;;;;;14.63;82.20;96651.12;29395;240;63009;-59
2021/06/30 01:34:30;;;;;;;0.50;0.50;;;;;;;14.60;82.28;96649.06;29395;198;63004;-59
2021/06/30 01:35:02;;;;;;;0.50;0.50;;;;;;;14.58;82.60;96645.84;29395;256;63009;-59
2021/06/30 01:35:34;;;;;;;0.40;0.40;;;;;;;14.58;82.42;96651.31;29395;372;63005;-58
2021/06/30 01:36:06;;;;;;;0.50;0.50;;;;;;;14.70;82.02;96648.72;29395;221;63009;-60
2021/06/30 01:36:54;;;;;;;0.40;0.40;;;;;;;14.74;81.24;96644.22;29395;216;63005;-58
2021/06/30 01:37:25;;;;;;;0.40;0.40;;;;;;;14.71;81.19;96655.78;29395;213;63009;-57
2021/06/30 01:37:57;;;;;;;0.40;0.40;;;;;;;14.71;81.80;96653.06;29395;228;63005;-58
2021/06/30 01:38:29;;;;;;;0.50;0.50;;;;;;;14.68;82.07;96640.03;29394;332;64013;-58
2021/06/30 01:39:01;;;;;;;0.45;0.45;;;;;;;14.69;81.37;96652.56;29395;222;63010;-58
2021/06/30 01:39:32;;;;;;;0.47;0.47;;;;;;;14.75;81.01;96645.81;29395;210;63009;-59
2021/06/30 01:40:09;;;;;;;0.40;0.40;;;;;;;14.76;80.96;96652.09;29395;198;63004;-57
2021/06/30 01:40:41;;;;;;;0.50;0.50;;;;;;;14.81;79.64;96648.37;29395;215;63009;-59
2021/06/30 01:41:14;;;;;;;0.40;0.40;;;;;;;14.75;80.15;96647.75;29395;199;63009;-58
2021/06/30 01:41:47;;;;;;;0.40;0.40;;;;;;;14.70;80.85;96653.38;29394;206;64013;-59
2021/06/30 01:42:18;;;;;;;0.50;0.50;;;;;;;14.66;81.48;96647.75;29395;218;63004;-58
2021/06/30 01:42:52;;;;;;;0.45;0.45;;;;;;;14.67;81.50;96654.81;29394;241;64014;-59
2021/06/30 01:43:24;;;;;;;0.40;0.40;;;;;;;14.66;81.71;96653.22;29395;271;63005;-58
2021/06/30 01:43:56;;;;;;;0.40;0.40;;;;;;;14.66;82.16;96647.75;29395;332;63009;-53
2021/06/30 01:44:27;;;;;;;0.50;0.50;;;;;;;14.68;81.93;96650.97;29395;249;63005;-58
2021/06/30 01:44:59;;;;;;;0.43;0.43;;;;;;;14.64;81.69;96644.56;29394;202;64013;-58
2021/06/30 01:45:31;;;;;;;0.50;0.50;;;;;;;14.60;82.08;96646.31;29395;280;63005;-59
2021/06/30 01:46:02;;;;;;;0.40;0.40;;;;;;;14.54;82.07;96649.56;29395;299;63009;-59
2021/06/30 01:46:34;;;;;;;0.40;0.40;;;;;;;14.50;82.94;96641.22;29395;299;63004;-58
2021/06/30 01:47:05;;;;;;;0.50;0.50;;;;;;;14.45;83.02;96646.84;29395;362;63009;-59
2021/06/30 01:47:38;;;;;;;0.40;0.40;;;;;;;14.41;83.23;96645.88;29394;212;64004;-57
2021/06/30 01:48:09;;;;;;;0.40;0.40;;;;;;;14.43;83.88;96643.62;29395;223;63009;-59
2021/06/30 01:48:49;;;;;;;0.45;0.45;;;;;;;14.41;83.44;96641.22;29394;278;64008;-60
2021/06/30 01:49:21;;;;;;;0.50;0.50;;;;;;;14.39;84.38;96645.38;29395;206;63016;-60
2021/06/30 01:49:52;;;;;;;0.50;0.50;;;;;;;14.37;84.05;96639.44;29395;220;63005;-59
2021/06/30 01:50:23;;;;;;;0.50;0.50;;;;;;;14.41;84.18;96640.44;29394;221;64014;-60
2021/06/30 01:50:54;;;;;;;0.45;0.45;;;;;;;14.40;84.00;96638.78;29395;197;63005;-58
2021/06/30 01:51:26;;;;;;;0.50;0.50;;;;;;;14.37;83.74;96644.91;29395;204;63005;-58
2021/06/30 01:51:57;;;;;;;0.40;0.40;;;;;;;14.37;84.15;96633.97;29395;299;63005;-59
2021/06/30 01:52:29;;;;;;;0.50;0.50;;;;;;;14.42;84.02;96647.50;29395;220;63018;-60
2021/06/30 01:53:02;;;;;;;0.40;0.40;;;;;;;14.40;84.00;96633.34;29394;220;64009;-58
2021/06/30 01:53:34;;;;;;;0.40;0.40;;;;;;;14.38;84.05;96638.31;29394;232;64013;-57
2021/06/30 01:54:16;;;;;;;0.40;0.40;;;;;;;14.39;84.32;96642.66;29395;228;63016;-59
2021/06/30 01:54:47;;;;;;;0.50;0.50;;;;;;;14.46;83.73;96639.47;29395;245;63016;-56
2021/06/30 01:55:18;;;;;;;0.50;0.50;;;;;;;14.47;83.79;96641.06;29395;301;63000;-58
2021/06/30 01:55:50;;;;;;;0.50;0.50;;;;;;;14.45;83.70;96641.38;29395;227;63009;-59
2021/06/30 01:56:26;;;;;;;0.40;0.40;;;;;;;14.40;83.77;96638.78;29395;204;63004;-60
2021/06/30 01:56:57;;;;;;;0.40;0.40;;;;;;;14.36;84.66;96643.28;29395;213;63009;-59
2021/06/30 01:57:28;;;;;;;0.50;0.50;;;;;;;14.31;84.92;96632.53;29395;222;63005;-58
2021/06/30 01:58:00;;;;;;;0.50;0.50;;;;;;;14.30;84.85;96630.94;29394;219;64014;-58
2021/06/30 01:58:31;;;;;;;0.50;0.50;;;;;;;14.28;84.86;96636.72;29394;253;64009;-59
2021/06/30 01:59:11;;;;;;;0.40;0.40;;;;;;;14.26;85.35;96629.97;29395;233;63009;-59
2021/06/30 01:59:42;;;;;;;0.50;0.50;;;;;;;14.23;85.48;96620.50;29439;241;63005;-59
2021/06/30 02:00:16;;;;;;;0.50;0.50;;;;;;;14.21;85.73;96627.41;29373;203;63023;-57
2021/06/30 02:00:54;;;;;;;0.40;0.40;;;;;;;14.16;85.77;96625.66;29395;226;63005;-58
2021/06/30 02:01:25;;;;;;;0.50;0.50;;;;;;;14.17;85.71;96613.62;29395;299;63021;-58
2021/06/30 02:01:56;;;;;;;0.50;0.50;;;;;;;14.15;85.77;96615.06;29395;202;63004;-59
2021/06/30 02:02:28;;;;;;;0.50;0.50;;;;;;;14.16;86.11;96622.94;29395;198;63009;-58
2021/06/30 02:03:01;;;;;;;0.40;0.40;;;;;;;14.19;85.80;96621.50;29395;217;63019;-58
2021/06/30 02:03:33;;;;;;;0.40;0.40;;;;;;;14.19;85.70;96627.75;29394;332;64013;-60
2021/06/30 02:04:15;;;;;;;0.40;0.40;;;;;;;14.20;85.52;96617.63;29395;202;63016;-58
2021/06/30 02:05:02;;;;;;;0.40;0.40;;;;;;;14.14;85.13;96618.91;29395;202;63009;-58
2021/06/30 02:05:33;;;;;;;0.50;0.50;;;;;;;14.07;84.67;96614.75;29394;304;64009;-58
2021/06/30 02:06:04;;;;;;;0.40;0.40;;;;;;;14.00;84.78;96614.41;29395;209;63009;-58
2021/06/30 02:06:43;;;;;;;0.40;0.40;;;;;;;13.95;85.65;96616.50;29395;202;63005;-58
2021/06/30 02:07:15;;;;;;;0.40;0.40;;;;;;;13.90;85.61;96605.75;29395;228;63026;-59
2021/06/30 02:07:49;;;;;;;0.40;0.40;;;;;;;13.87;86.20;96609.91;29395;207;63005;-58
2021/06/30 02:08:21;;;;;;;0.50;0.50;;;;;;;13.86;86.18;96611.03;29395;214;63009;-58
2021/06/30 02:08:56;;;;;;;0.40;0.40;;;;;;;13.89;86.55;96618.59;29395;215;63004;-58
2021/06/30 02:09:27;;;;;;;0.40;0.40;;;;;;;13.90;86.20;96619.38;29394;264;64013;-58
2021/06/30 02:09:59;;;;;;;0.40;0.40;;;;;;;13.90;86.40;96614.72;29395;202;63004;-59
2021/06/30 02:10:30;;;;;;;0.40;0.40;;;;;;;13.91;86.21;96616.34;29395;197;63009;-60
2021/06/30 02:11:02;;;;;;;0.40;0.40;;;;;;;13.92;86.42;96615.22;29394;271;64008;-59
2021/06/30 02:11:34;;;;;;;0.40;0.40;;;;;;;13.91;86.14;96615.53;29394;198;64013;-58
2021/06/30 02:12:06;;;;;;;0.40;0.40;;;;;;;13.89;86.23;96607.66;29395;273;63005;-58
2021/06/30 02:12:38;;;;;;;0.40;0.40;;;;;;;13.92;86.28;96617.94;29395;235;63009;-58
2021/06/30 02:13:09;;;;;;;0.40;0.40;;;;;;;13.92;85.80;96612.50;29394;217;64009;-59
2021/06/30 02:13:41;;;;;;;0.40;0.40;;;;;;;13.93;85.96;96614.09;29395;197;63009;-58
2021/06/30 02:14:12;;;;;;;0.40;0.40;;;;;;;13.93;85.15;96614.09;29395;222;63005;-58
2021/06/30 02:14:43;;;;;;;0.40;0.40;;;;;;;13.87;84.60;96620.03;29395;231;63009;-59
2021/06/30 02:15:19;;;;;;;0.50;0.50;;;;;;;13.84;85.72;96616.03;29395;267;63005;-57
2021/06/30 02:15:50;;;;;;;0.40;0.40;;;;;;;13.84;85.85;96610.59;29395;237;63020;-60
2021/06/30 02:16:21;;;;;;;0.40;0.40;;;;;;;13.83;85.93;96608.97;29395;202;63004;-57
2021/06/30 02:16:52;;;;;;;0.40;0.40;;;;;;;13.82;85.76;96612.81;29395;247;63009;-60
2021/06/30 02:17:23;;;;;;;0.40;0.40;;;;;;;13.81;86.00;96611.22;29395;249;63004;-59
2021/06/30 02:17:57;;;;;;;0.40;0.40;;;;;;;13.90;85.31;96614.72;29394;213;64013;-57
2021/06/30 02:18:29;;;;;;;0.40;0.40;;;;;;;13.92;84.80;96611.69;29395;208;63004;-58
2021/06/30 02:19:06;;;;;;;0.40;0.40;;;;;;;13.90;84.67;96619.38;29395;229;63008;-58
2021/06/30 02:19:39;;;;;;;0.40;0.40;;;;;;;13.95;84.70;96617.31;29395;230;63005;-58
2021/06/30 02:20:12;;;;;;;0.50;0.50;;;;;;;13.94;84.35;96615.69;29395;330;63009;-57
2021/06/30 02:20:43;;;;;;;0.40;0.40;;;;;;;13.89;84.14;96615.84;29395;230;63005;-58
2021/06/30 02:21:15;;;;;;;0.40;0.40;;;;;;;13.82;84.03;96612.03;29395;325;63009;-58
2021/06/30 02:21:46;;;;;;;0.40;0.40;;;;;;;13.78;84.77;96611.84;29394;217;64009;-59
2021/06/30 02:22:18;;;;;;;0.40;0.40;;;;;;;13.74;85.27;96611.69;29395;245;63009;-63
2021/06/30 02:22:50;;;;;;;0.40;0.40;;;;;;;13.84;85.49;96605.12;29395;207;63005;-58
2021/06/30 02:23:21;;;;;;;0.40;0.40;;;;;;;13.80;84.86;96611.53;29395;238;63009;-58
2021/06/30 02:23:52;;;;;;;0.40;0.40;;;;;;;13.78;84.82;96606.41;29395;234;63004;-58
2021/06/30 02:24:24;;;;;;;0.50;0.50;;;;;;;13.74;84.63;96611.69;29395;199;63009;-59
2021/06/30 02:24:58;;;;;;;0.43;0.43;;;;;;;13.78;84.69;96611.84;29394;283;64009;-57
2021/06/30 02:25:30;;;;;;;0.40;0.40;;;;;;;13.75;85.44;96617.94;29395;199;63009;-58
2021/06/30 02:26:03;;;;;;;0.40;0.40;;;;;;;13.68;85.53;96612.16;29395;226;63004;-57
2021/06/30 02:26:35;;;;;;;0.40;0.40;;;;;;;13.62;86.16;96608.78;29395;202;63008;-58
2021/06/30 02:27:06;;;;;;;0.40;0.40;;;;;;;13.58;86.20;96616.00;29395;220;63005;-58
2021/06/30 02:27:39;;;;;;;0.40;0.40;;;;;;;13.58;86.55;96612.47;29394;219;64014;-59
2021/06/30 02:28:10;;;;;;;0.40;0.40;;;;;;;13.58;86.86;96609.75;29395;237;63005;-57
2021/06/30 02:28:41;;;;;;;0.40;0.40;;;;;;;13.62;85.08;96610.72;29395;222;63009;-58
2021/06/30 02:29:12;;;;;;;0.40;0.40;;;;;;;13.65;85.37;96619.06;29395;205;63005;-56
2021/06/30 02:29:43;;;;;;;0.43;0.43;;;;;;;13.70;84.53;96615.38;29395;202;63009;-56
2021/06/30 02:30:33;;;;;;;0.50;0.50;;;;;;;13.71;84.09;96606.88;29395;247;63005;-58
2021/06/30 02:31:04;;;;;;;0.50;0.50;;;;;;;13.81;82.63;96624.06;29395;252;63009;-57
2021/06/30 02:31:35;;;;;;;0.45;0.45;;;;;;;13.82;82.84;96623.75;29395;252;63004;-59
2021/06/30 02:32:07;;;;;;;0.40;0.40;;;;;;;13.75;83.63;96613.31;29395;212;63009;-58
2021/06/30 02:32:40;;;;;;;0.50;0.50;;;;;;;13.68;83.26;96623.06;29394;264;64009;-57
2021/06/30 02:33:12;;;;;;;0.40;0.40;;;;;;;13.59;84.13;96620.31;29395;210;63009;-59
2021/06/30 02:33:46;;;;;;;0.40;0.40;;;;;;;13.56;84.02;96620.16;29395;199;63004;-58
2021/06/30 02:34:18;;;;;;;0.47;0.47;;;;;;;13.51;84.48;96623.06;29395;284;63008;-57
2021/06/30 02:34:50;;;;;;;0.40;0.40;;;;;;;13.52;84.83;96625.44;29395;211;63005;-58
2021/06/30 02:35:24;;;;;;;0.50;0.50;;;;;;;13.49;84.59;96626.09;29395;203;63009;-58